Terminal Aerodrome Forecast
Issued by NWS

Home | Current Version | Previous Version | Text Only | Print | Product List | Glossary On
Versions: 1 2 3 4 5 6 7 8 9 10 11 12 13 14 15 16 17 18
000
FTUS44 KSJT 281100
TAFSOA
TAF
KSOA 281134Z 2812/2912 VRB04KT P6SM SCT030 OVC060
      TEMPO 2812/2814 -RAPL
     FM281400 VRB04KT P6SM FEW035 BKN070
     FM281900 VRB04KT P6SM SKC=

USA.gov is the U.S. government's official web portal to all federal, state and local government web resources and services.